Time;durP1;ratioP1;P1;durP2;ratioP2;P2;SDS_P1;SDS_P2;PMS_P1;PMS_P2;Temp;Humidity;BMP_temperature;BMP_pressure;BME280_temperature;BME280_humidity;BME280_pressure;Samples;Min_cycle;Max_cycle;Signal;HPM_P1;HPM_P2
2024/02/22 00:02:21;;;;;;;0.10;0.10;;;;;;;;;;5011004;28;20127;-87
2024/02/22 00:04:47;;;;;;;0.10;0.10;;;;;;;;;;5010869;28;20033;-86
2024/02/22 00:07:16;;;;;;;0.10;0.10;;;;;;;;;;5010759;28;20045;-86
2024/02/22 00:09:42;;;;;;;0.10;0.10;;;;;;;;;;5010775;28;20474;-87
2024/02/22 00:12:09;;;;;;;0.10;0.10;;;;;;;;;;5010779;28;20037;-87
2024/02/22 00:14:35;;;;;;;0.10;0.10;;;;;;;;;;5013752;28;20049;-87
2024/02/22 00:17:02;;;;;;;0.10;0.10;;;;;;;;;;5015004;28;20104;-86
2024/02/22 00:19:28;;;;;;;0.10;0.10;;;;;;;;;;5014596;28;20081;-87
2024/02/22 00:21:54;;;;;;;0.10;0.10;;;;;;;;;;5014438;28;20045;-87
2024/02/22 00:24:21;;;;;;;0.10;0.10;;;;;;;;;;5014476;28;20084;-86
2024/02/22 00:26:47;;;;;;;0.10;0.10;;;;;;;;;;5014352;28;20038;-86
2024/02/22 00:29:13;;;;;;;0.10;0.10;;;;;;;;;;5014436;28;20042;-87
2024/02/22 00:31:39;;;;;;;0.10;0.10;;;;;;;;;;5014233;28;20041;-86
2024/02/22 00:34:05;;;;;;;0.30;0.30;;;;;;;;;;5014445;28;20045;-87
2024/02/22 00:36:42;;;;;;;0.10;0.10;;;;;;;;;;5014423;28;20042;-87
2024/02/22 00:39:09;;;;;;;0.20;0.20;;;;;;;;;;5014183;28;20046;-87
2024/02/22 00:41:35;;;;;;;0.10;0.10;;;;;;;;;;5014203;28;20041;-87
2024/02/22 00:44:01;;;;;;;0.10;0.10;;;;;;;;;;5014348;28;20371;-87
2024/02/22 00:46:27;;;;;;;0.10;0.10;;;;;;;;;;5014109;28;20073;-86
2024/02/22 00:48:54;;;;;;;0.10;0.10;;;;;;;;;;5014019;28;20084;-86
2024/02/22 00:51:21;;;;;;;0.10;0.10;;;;;;;;;;5013886;28;20038;-86
2024/02/22 00:53:47;;;;;;;0.10;0.10;;;;;;;;;;5013844;28;20042;-86
2024/02/22 00:56:13;;;;;;;0.10;0.10;;;;;;;;;;5013703;28;20746;-86
2024/02/22 00:58:39;;;;;;;0.20;0.20;;;;;;;;;;5013865;28;20498;-86
2024/02/22 01:01:05;;;;;;;0.30;0.30;;;;;;;;;;5013905;28;20042;-86
2024/02/22 01:03:31;;;;;;;0.20;0.20;;;;;;;;;;5013652;28;20082;-86
2024/02/22 01:05:57;;;;;;;0.10;0.10;;;;;;;;;;5013821;28;20453;-85
2024/02/22 01:08:23;;;;;;;0.10;0.10;;;;;;;;;;5013552;28;20046;-85
2024/02/22 01:10:49;;;;;;;0.10;0.10;;;;;;;;;;5013484;28;20042;-85
2024/02/22 01:13:16;;;;;;;0.10;0.10;;;;;;;;;;5013461;28;20041;-86
2024/02/22 01:15:42;;;;;;;0.10;0.10;;;;;;;;;;5013628;28;20485;-84
2024/02/22 01:18:08;;;;;;;0.20;0.20;;;;;;;;;;5013530;28;20052;-85
2024/02/22 01:20:34;;;;;;;0.10;0.10;;;;;;;;;;5013618;28;20112;-85
2024/02/22 01:23:03;;;;;;;0.10;0.10;;;;;;;;;;5013474;28;20387;-86
2024/02/22 01:25:29;;;;;;;0.10;0.10;;;;;;;;;;5012637;28;20440;-86
2024/02/22 01:27:55;;;;;;;0.10;0.10;;;;;;;;;;5013653;28;20382;-87
2024/02/22 01:30:21;;;;;;;0.10;0.10;;;;;;;;;;5013060;28;20042;-87
2024/02/22 01:32:47;;;;;;;0.10;0.10;;;;;;;;;;5013334;28;20115;-86
2024/02/22 01:35:13;;;;;;;0.10;0.10;;;;;;;;;;5013129;28;20064;-86
2024/02/22 01:37:39;;;;;;;0.10;0.10;;;;;;;;;;5013072;28;20044;-85
2024/02/22 01:40:08;;;;;;;0.20;0.20;;;;;;;;;;5013236;28;20046;-86
2024/02/22 01:42:34;;;;;;;0.10;0.10;;;;;;;;;;5013024;28;20050;-86
2024/02/22 01:45:02;;;;;;;0.10;0.10;;;;;;;;;;5012788;28;20210;-86
2024/02/22 01:47:29;;;;;;;0.17;0.17;;;;;;;;;;5013164;28;20091;-87
2024/02/22 01:49:55;;;;;;;0.10;0.10;;;;;;;;;;5012703;28;20486;-86
2024/02/22 01:52:21;;;;;;;0.20;0.20;;;;;;;;;;5012931;28;20045;-86
2024/02/22 01:54:47;;;;;;;0.10;0.10;;;;;;;;;;5012613;28;20064;-87
2024/02/22 01:57:14;;;;;;;0.10;0.10;;;;;;;;;;5012609;28;20061;-85
2024/02/22 01:59:41;;;;;;;0.10;0.10;;;;;;;;;;5012860;28;20136;-86
2024/02/22 02:02:07;;;;;;;0.10;0.10;;;;;;;;;;5012548;28;20053;-86
2024/02/22 02:04:33;;;;;;;0.10;0.10;;;;;;;;;;5012226;28;20034;-85
2024/02/22 02:06:59;;;;;;;0.10;0.10;;;;;;;;;;5012680;28;20033;-85
2024/02/22 02:09:25;;;;;;;0.15;0.15;;;;;;;;;;5012425;28;20037;-86
2024/02/22 02:11:51;;;;;;;0.10;0.10;;;;;;;;;;5012314;28;20048;-86
2024/02/22 02:14:17;;;;;;;0.10;0.10;;;;;;;;;;5012332;28;20045;-86
2024/02/22 02:16:43;;;;;;;0.10;0.10;;;;;;;;;;5012257;28;20042;-86
2024/02/22 02:19:11;;;;;;;0.10;0.10;;;;;;;;;;5012523;28;20085;-85
2024/02/22 02:21:40;;;;;;;0.13;0.13;;;;;;;;;;5012125;28;20092;-85
2024/02/22 02:24:06;;;;;;;0.10;0.10;;;;;;;;;;5011973;28;20477;-85
2024/02/22 02:26:32;;;;;;;0.10;0.10;;;;;;;;;;5012384;28;20433;-86
2024/02/22 02:28:58;;;;;;;0.10;0.10;;;;;;;;;;5012020;28;20038;-85
2024/02/22 02:31:24;;;;;;;0.20;0.20;;;;;;;;;;5012158;28;20096;-85
2024/02/22 02:33:50;;;;;;;0.10;0.10;;;;;;;;;;5011876;28;20107;-85
2024/02/22 02:36:16;;;;;;;0.10;0.10;;;;;;;;;;5011648;28;20038;-85
2024/02/22 02:38:42;;;;;;;0.20;0.20;;;;;;;;;;5012411;28;20038;-88
2024/02/22 02:41:11;;;;;;;0.10;0.10;;;;;;;;;;5012133;28;20052;-87
2024/02/22 02:43:38;;;;;;;0.10;0.10;;;;;;;;;;5011784;28;20048;-87
2024/02/22 02:46:04;;;;;;;0.40;0.40;;;;;;;;;;5011861;28;20124;-87
2024/02/22 02:48:30;;;;;;;0.20;0.20;;;;;;;;;;5011733;28;20041;-88
2024/02/22 02:50:58;;;;;;;0.10;0.10;;;;;;;;;;5011859;28;20485;-86
2024/02/22 02:53:25;;;;;;;0.10;0.10;;;;;;;;;;5011969;28;20148;-85
2024/02/22 02:55:51;;;;;;;0.20;0.20;;;;;;;;;;5011463;28;20058;-85
2024/02/22 02:58:17;;;;;;;0.10;0.10;;;;;;;;;;5011546;28;20100;-86
2024/02/22 03:00:43;;;;;;;0.10;0.10;;;;;;;;;;5011641;28;20548;-86
2024/02/22 03:03:09;;;;;;;0.10;0.10;;;;;;;;;;5011387;28;20216;-86
2024/02/22 03:05:38;;;;;;;0.10;0.10;;;;;;;;;;5011411;28;20125;-85
2024/02/22 03:08:04;;;;;;;0.10;0.10;;;;;;;;;;5011393;28;20038;-85
2024/02/22 03:10:30;;;;;;;0.10;0.10;;;;;;;;;;5011642;28;20433;-85
2024/02/22 03:12:56;;;;;;;0.10;0.10;;;;;;;;;;5011508;28;20064;-85
2024/02/22 03:15:23;;;;;;;0.10;0.10;;;;;;;;;;5011374;28;20478;-85
2024/02/22 03:17:49;;;;;;;0.10;0.10;;;;;;;;;;5011543;28;20482;-86
2024/02/22 03:20:17;;;;;;;0.10;0.10;;;;;;;;;;5011346;28;20049;-85
2024/02/22 03:22:43;;;;;;;0.10;0.10;;;;;;;;;;5011312;28;20037;-85
2024/02/22 03:25:09;;;;;;;0.10;0.10;;;;;;;;;;5011233;28;20096;-85
2024/02/22 03:27:36;;;;;;;0.10;0.10;;;;;;;;;;5011163;28;20049;-86
2024/02/22 03:30:03;;;;;;;0.10;0.10;;;;;;;;;;5011011;28;20038;-86
2024/02/22 03:32:30;;;;;;;0.10;0.10;;;;;;;;;;5011379;28;20048;-86
2024/02/22 03:34:57;;;;;;;0.10;0.10;;;;;;;;;;5011357;28;20095;-86
2024/02/22 03:37:23;;;;;;;0.10;0.10;;;;;;;;;;5011027;28;20046;-86
2024/02/22 03:39:49;;;;;;;0.10;0.10;;;;;;;;;;5010969;28;20112;-86
2024/02/22 03:42:17;;;;;;;0.10;0.10;;;;;;;;;;5011521;28;20116;-85
2024/02/22 03:44:43;;;;;;;0.10;0.10;;;;;;;;;;5010968;28;20500;-86
2024/02/22 03:47:09;;;;;;;0.10;0.10;;;;;;;;;;5011253;28;20049;-86
2024/02/22 03:49:35;;;;;;;0.10;0.10;;;;;;;;;;5014410;28;20045;-86
2024/02/22 03:52:01;;;;;;;0.10;0.10;;;;;;;;;;5014835;28;20504;-86
2024/02/22 03:54:27;;;;;;;0.10;0.10;;;;;;;;;;5016857;28;20045;-87
2024/02/22 03:56:55;;;;;;;0.10;0.10;;;;;;;;;;5002139;28;20098;-86
2024/02/22 03:59:21;;;;;;;0.10;0.10;;;;;;;;;;5001915;28;20045;-86
2024/02/22 04:01:47;;;;;;;0.10;0.10;;;;;;;;;;5018183;28;20045;-86
2024/02/22 04:04:13;;;;;;;0.10;0.10;;;;;;;;;;5001709;28;20045;-85
2024/02/22 04:06:39;;;;;;;0.10;0.10;;;;;;;;;;5001724;28;20045;-87
2024/02/22 04:09:06;;;;;;;0.10;0.10;;;;;;;;;;5002025;28;20041;-86
2024/02/22 04:11:32;;;;;;;0.10;0.10;;;;;;;;;;5001849;28;20037;-87
2024/02/22 04:13:58;;;;;;;0.10;0.10;;;;;;;;;;5001825;28;20533;-86
2024/02/22 04:16:25;;;;;;;0.10;0.10;;;;;;;;;;5001809;28;20049;-85
2024/02/22 04:18:51;;;;;;;0.10;0.10;;;;;;;;;;5001651;28;20099;-87
2024/02/22 04:21:17;;;;;;;0.10;0.10;;;;;;;;;;5001887;28;20047;-87
2024/02/22 04:23:44;;;;;;;0.10;0.10;;;;;;;;;;5001275;28;20084;-86
2024/02/22 04:26:10;;;;;;;0.10;0.10;;;;;;;;;;5001402;28;20037;-86
2024/02/22 04:28:37;;;;;;;0.10;0.10;;;;;;;;;;5001658;28;20499;-86
2024/02/22 04:31:04;;;;;;;0.10;0.10;;;;;;;;;;5001431;28;20055;-86
2024/02/22 04:33:32;;;;;;;0.10;0.10;;;;;;;;;;5001144;28;20041;-87
2024/02/22 04:35:58;;;;;;;0.10;0.10;;;;;;;;;;5017388;28;20049;-86
2024/02/22 04:38:24;;;;;;;0.10;0.10;;;;;;;;;;5001374;28;20045;-86
2024/02/22 04:40:51;;;;;;;0.10;0.10;;;;;;;;;;5017343;28;20086;-86
2024/02/22 04:43:17;;;;;;;0.10;0.10;;;;;;;;;;5001132;28;20045;-86
2024/02/22 04:45:43;;;;;;;0.10;0.10;;;;;;;;;;5001215;28;20041;-87
2024/02/22 04:48:09;;;;;;;0.10;0.10;;;;;;;;;;5001253;28;20119;-87
2024/02/22 04:50:35;;;;;;;0.10;0.10;;;;;;;;;;5000880;28;20056;-86
2024/02/22 04:53:04;;;;;;;0.10;0.10;;;;;;;;;;5001237;28;20148;-86
2024/02/22 04:55:30;;;;;;;0.10;0.10;;;;;;;;;;5013750;28;20052;-86
2024/02/22 04:57:56;;;;;;;0.10;0.10;;;;;;;;;;5013810;28;20053;-86
2024/02/22 05:00:22;;;;;;;0.10;0.10;;;;;;;;;;5013971;28;20046;-87
2024/02/22 05:02:49;;;;;;;0.10;0.10;;;;;;;;;;5013960;28;20094;-87
2024/02/22 05:05:15;;;;;;;0.10;0.10;;;;;;;;;;5013585;28;20038;-87
2024/02/22 05:07:41;;;;;;;0.20;0.20;;;;;;;;;;5013622;28;20125;-87
2024/02/22 05:10:08;;;;;;;0.10;0.10;;;;;;;;;;5013474;28;20038;-86
2024/02/22 05:12:34;;;;;;;0.10;0.10;;;;;;;;;;5013529;28;20053;-85
2024/02/22 05:15:00;;;;;;;0.10;0.10;;;;;;;;;;5013455;28;20045;-86
2024/02/22 05:17:26;;;;;;;0.10;0.10;;;;;;;;;;5013421;28;20050;-86
2024/02/22 05:19:52;;;;;;;0.10;0.10;;;;;;;;;;5013391;28;20041;-85
2024/02/22 05:22:19;;;;;;;0.10;0.10;;;;;;;;;;5013570;28;20394;-85
2024/02/22 05:24:45;;;;;;;0.10;0.10;;;;;;;;;;5013132;28;20037;-85
2024/02/22 05:27:11;;;;;;;0.10;0.10;;;;;;;;;;5013499;28;20058;-85
2024/02/22 05:29:37;;;;;;;0.10;0.10;;;;;;;;;;5013183;28;20050;-86
2024/02/22 05:32:04;;;;;;;0.10;0.10;;;;;;;;;;5013145;28;20052;-85
2024/02/22 05:34:30;;;;;;;0.10;0.10;;;;;;;;;;5013120;28;20048;-85
2024/02/22 05:36:56;;;;;;;0.10;0.10;;;;;;;;;;5013118;28;20054;-85
2024/02/22 05:39:22;;;;;;;0.20;0.20;;;;;;;;;;5013301;28;20125;-85
2024/02/22 05:41:49;;;;;;;0.10;0.10;;;;;;;;;;5012987;28;20042;-86
2024/02/22 05:44:18;;;;;;;0.10;0.10;;;;;;;;;;5012855;28;20038;-86
2024/02/22 05:46:44;;;;;;;0.10;0.10;;;;;;;;;;5012860;28;20125;-85
2024/02/22 05:49:10;;;;;;;0.10;0.10;;;;;;;;;;5012893;28;20088;-86
2024/02/22 05:51:36;;;;;;;0.10;0.10;;;;;;;;;;5012673;28;20470;-86
2024/02/22 05:54:02;;;;;;;0.10;0.10;;;;;;;;;;5012655;28;20049;-86
2024/02/22 05:56:29;;;;;;;0.10;0.10;;;;;;;;;;5012501;28;20046;-86
2024/02/22 05:58:55;;;;;;;0.10;0.10;;;;;;;;;;5013041;28;20050;-86
2024/02/22 06:01:21;;;;;;;0.10;0.10;;;;;;;;;;5012659;28;20041;-86
2024/02/22 06:03:47;;;;;;;0.10;0.10;;;;;;;;;;5012474;28;20049;-85
2024/02/22 06:06:15;;;;;;;0.10;0.10;;;;;;;;;;5012599;28;20043;-85
2024/02/22 06:08:42;;;;;;;0.30;0.30;;;;;;;;;;5012673;28;20328;-86
2024/02/22 06:11:09;;;;;;;0.17;0.17;;;;;;;;;;5011740;28;20030;-85
2024/02/22 06:13:35;;;;;;;0.30;0.30;;;;;;;;;;5012318;28;20556;-86
2024/02/22 06:16:01;;;;;;;0.20;0.20;;;;;;;;;;5012299;28;20052;-86
2024/02/22 06:18:27;;;;;;;0.10;0.10;;;;;;;;;;5012253;28;20581;-87
2024/02/22 06:20:53;;;;;;;0.10;0.10;;;;;;;;;;5012485;28;20049;-86
2024/02/22 06:23:20;;;;;;;0.20;0.20;;;;;;;;;;5012173;28;20133;-86
2024/02/22 06:25:46;;;;;;;0.10;0.10;;;;;;;;;;5012261;28;20041;-87
2024/02/22 06:28:12;;;;;;;0.20;0.20;;;;;;;;;;5012364;28;20046;-86
2024/02/22 06:30:39;;;;;;;0.10;0.10;;;;;;;;;;5012454;28;20056;-86
2024/02/22 06:33:06;;;;;;;0.10;0.10;;;;;;;;;;5011991;28;20038;-86
2024/02/22 06:35:32;;;;;;;0.10;0.10;;;;;;;;;;5011844;28;20042;-87
2024/02/22 06:37:58;;;;;;;0.10;0.10;;;;;;;;;;5011882;28;20071;-87
2024/02/22 06:40:24;;;;;;;0.20;0.20;;;;;;;;;;5011936;28;20042;-86
2024/02/22 06:42:50;;;;;;;0.30;0.30;;;;;;;;;;5011815;28;20041;-86
2024/02/22 06:45:18;;;;;;;0.20;0.20;;;;;;;;;;5011702;28;20033;-86
2024/02/22 06:47:44;;;;;;;0.10;0.10;;;;;;;;;;5012007;28;20400;-86
2024/02/22 06:50:10;;;;;;;0.10;0.10;;;;;;;;;;5011771;28;20413;-86
2024/02/22 06:52:37;;;;;;;0.80;0.80;;;;;;;;;;5011632;28;20092;-86
2024/02/22 06:55:03;;;;;;;0.10;0.10;;;;;;;;;;5011374;28;20060;-86
2024/02/22 06:57:29;;;;;;;0.57;0.22;;;;;;;;;;5011759;28;20057;-87
2024/02/22 06:59:55;;;;;;;0.10;0.10;;;;;;;;;;5011756;28;20046;-85
2024/02/22 07:02:21;;;;;;;0.10;0.10;;;;;;;;;;5011819;28;20149;-86
2024/02/22 07:04:47;;;;;;;0.10;0.10;;;;;;;;;;5011367;28;20314;-86
2024/02/22 07:07:15;;;;;;;0.10;0.10;;;;;;;;;;5011456;28;20494;-86
2024/02/22 07:09:41;;;;;;;0.10;0.10;;;;;;;;;;5011368;28;20060;-86
2024/02/22 07:12:07;;;;;;;0.10;0.10;;;;;;;;;;5011353;28;20038;-86
2024/02/22 07:14:33;;;;;;;0.10;0.10;;;;;;;;;;5011483;28;20045;-85
2024/02/22 07:16:59;;;;;;;0.10;0.10;;;;;;;;;;5011382;28;20037;-84
2024/02/22 07:19:27;;;;;;;0.10;0.10;;;;;;;;;;5011305;28;20084;-85
2024/02/22 07:21:53;;;;;;;0.10;0.10;;;;;;;;;;5011387;28;20465;-86
2024/02/22 07:24:19;;;;;;;0.10;0.10;;;;;;;;;;5010440;28;20034;-86
2024/02/22 07:26:46;;;;;;;0.10;0.10;;;;;;;;;;5011246;28;20042;-84
2024/02/22 07:29:12;;;;;;;0.10;0.10;;;;;;;;;;5011110;28;20490;-85
2024/02/22 07:31:38;;;;;;;0.10;0.10;;;;;;;;;;5011106;28;20477;-84
2024/02/22 07:34:04;;;;;;;0.10;0.10;;;;;;;;;;5010977;28;20516;-86
2024/02/22 07:36:30;;;;;;;0.10;0.10;;;;;;;;;;5011342;28;20050;-85
2024/02/22 07:38:57;;;;;;;0.10;0.10;;;;;;;;;;5011575;28;20169;-86
2024/02/22 07:41:24;;;;;;;0.10;0.10;;;;;;;;;;5010995;28;20045;-86
2024/02/22 07:43:50;;;;;;;0.20;0.20;;;;;;;;;;5011091;28;20108;-86
2024/02/22 07:46:16;;;;;;;0.10;0.10;;;;;;;;;;5010845;28;20096;-85
2024/02/22 07:48:42;;;;;;;0.10;0.10;;;;;;;;;;5010907;28;20048;-85
2024/02/22 07:51:09;;;;;;;0.10;0.10;;;;;;;;;;5011111;28;20108;-86
2024/02/22 07:53:35;;;;;;;0.10;0.10;;;;;;;;;;5010891;28;20481;-85
2024/02/22 07:56:04;;;;;;;0.10;0.10;;;;;;;;;;5010732;28;20050;-85
2024/02/22 07:58:34;;;;;;;0.10;0.10;;;;;;;;;;5010952;28;20054;-86
2024/02/22 08:01:00;;;;;;;0.10;0.10;;;;;;;;;;5010726;28;20038;-87
2024/02/22 08:03:26;;;;;;;0.10;0.10;;;;;;;;;;5010853;28;20054;-86
2024/02/22 08:05:52;;;;;;;0.10;0.10;;;;;;;;;;5011031;28;20038;-85
2024/02/22 08:08:22;;;;;;;0.10;0.10;;;;;;;;;;5010683;28;20054;-86
2024/02/22 08:10:48;;;;;;;0.30;0.20;;;;;;;;;;5010658;28;20030;-87
2024/02/22 08:13:14;;;;;;;0.10;0.10;;;;;;;;;;5010841;28;20400;-87
2024/02/22 08:15:40;;;;;;;0.10;0.10;;;;;;;;;;5010819;28;20041;-86
2024/02/22 08:18:07;;;;;;;0.10;0.10;;;;;;;;;;5010258;28;20037;-86
2024/02/22 08:20:35;;;;;;;0.10;0.10;;;;;;;;;;5028847;28;20046;-87
2024/02/22 08:23:08;;;;;;;0.10;0.10;;;;;;;;;;4994923;28;20042;-86
2024/02/22 08:25:34;;;;;;;0.10;0.10;;;;;;;;;;5010683;28;20085;-86
2024/02/22 08:28:00;;;;;;;0.10;0.10;;;;;;;;;;4994402;28;20049;-85
2024/02/22 08:30:26;;;;;;;0.10;0.10;;;;;;;;;;4994142;28;20045;-85
2024/02/22 08:32:52;;;;;;;0.10;0.10;;;;;;;;;;4994336;28;20129;-85
2024/02/22 08:35:18;;;;;;;0.10;0.10;;;;;;;;;;5012751;28;20041;-86
2024/02/22 08:37:44;;;;;;;0.25;0.25;;;;;;;;;;4997940;28;20188;-85
2024/02/22 08:40:12;;;;;;;0.10;0.10;;;;;;;;;;5014013;28;20115;-86
2024/02/22 08:42:38;;;;;;;0.10;0.10;;;;;;;;;;5013855;28;20038;-86
2024/02/22 08:45:05;;;;;;;0.10;0.10;;;;;;;;;;5013887;28;20073;-86
2024/02/22 08:47:31;;;;;;;0.20;0.20;;;;;;;;;;5014128;28;20494;-85
2024/02/22 08:49:59;;;;;;;0.10;0.10;;;;;;;;;;5013719;28;20553;-84
2024/02/22 08:52:26;;;;;;;0.13;0.13;;;;;;;;;;5014091;28;20049;-88
2024/02/22 08:54:52;;;;;;;0.43;0.43;;;;;;;;;;5013749;28;20054;-85
2024/02/22 08:57:21;;;;;;;0.10;0.10;;;;;;;;;;5013954;28;20137;-86
2024/02/22 08:59:49;;;;;;;0.10;0.10;;;;;;;;;;5013900;28;20042;-85
2024/02/22 09:02:15;;;;;;;0.20;0.20;;;;;;;;;;5012561;28;20092;-86
2024/02/22 09:04:41;;;;;;;0.10;0.10;;;;;;;;;;4997140;28;20080;-86
2024/02/22 09:07:07;;;;;;;0.10;0.10;;;;;;;;;;4996641;28;20090;-85
2024/02/22 09:09:33;;;;;;;0.10;0.10;;;;;;;;;;5001048;28;20096;-85
2024/02/22 09:11:59;;;;;;;0.38;0.38;;;;;;;;;;4996778;28;20038;-86
2024/02/22 09:14:25;;;;;;;0.10;0.10;;;;;;;;;;5013604;28;20111;-85
2024/02/22 09:16:51;;;;;;;0.10;0.10;;;;;;;;;;5013416;28;20041;-86
2024/02/22 09:19:17;;;;;;;0.47;0.47;;;;;;;;;;5013251;28;20037;-86
2024/02/22 09:21:47;;;;;;;0.30;0.30;;;;;;;;;;5013101;28;20050;-86
2024/02/22 09:24:13;;;;;;;0.20;0.20;;;;;;;;;;5013017;28;20500;-86
2024/02/22 09:26:40;;;;;;;0.10;0.10;;;;;;;;;;5029845;28;20048;-87
2024/02/22 09:29:06;;;;;;;0.20;0.20;;;;;;;;;;5013123;28;20126;-87
2024/02/22 09:31:32;;;;;;;0.10;0.10;;;;;;;;;;5013053;28;20034;-86
2024/02/22 09:34:00;;;;;;;0.10;0.10;;;;;;;;;;5013175;28;20133;-87
2024/02/22 09:36:26;;;;;;;0.10;0.10;;;;;;;;;;5000081;28;20504;-85
2024/02/22 09:38:52;;;;;;;0.10;0.10;;;;;;;;;;5012812;28;20038;-83
2024/02/22 09:41:19;;;;;;;0.55;0.22;;;;;;;;;;4996720;28;20081;-86
2024/02/22 09:43:45;;;;;;;0.10;0.10;;;;;;;;;;4996662;28;20048;-86
2024/02/22 09:46:11;;;;;;;0.10;0.10;;;;;;;;;;5011828;28;20038;-86
2024/02/22 09:48:37;;;;;;;0.10;0.10;;;;;;;;;;5012619;28;20426;-87
2024/02/22 09:51:04;;;;;;;0.10;0.10;;;;;;;;;;5012886;28;20049;-86
2024/02/22 09:53:30;;;;;;;0.10;0.10;;;;;;;;;;5012706;28;20095;-86
2024/02/22 09:55:56;;;;;;;0.10;0.10;;;;;;;;;;5007034;28;20057;-86
2024/02/22 09:58:22;;;;;;;0.40;0.40;;;;;;;;;;5011990;28;20417;-85
2024/02/22 10:00:50;;;;;;;0.10;0.10;;;;;;;;;;5012266;28;20060;-85
2024/02/22 10:03:16;;;;;;;0.17;0.17;;;;;;;;;;5012363;28;20084;-85
2024/02/22 10:05:42;;;;;;;0.10;0.10;;;;;;;;;;4995672;28;20052;-85
2024/02/22 10:08:10;;;;;;;0.13;0.13;;;;;;;;;;5012334;28;20493;-85
2024/02/22 10:10:36;;;;;;;0.10;0.10;;;;;;;;;;4994993;28;20520;-84
2024/02/22 10:13:03;;;;;;;0.20;0.20;;;;;;;;;;5012487;28;20034;-85
2024/02/22 10:15:32;;;;;;;0.10;0.10;;;;;;;;;;5012335;28;20045;-85
2024/02/22 10:17:58;;;;;;;0.10;0.10;;;;;;;;;;5028749;28;20052;-85
2024/02/22 10:20:33;;;;;;;0.20;0.20;;;;;;;;;;5011162;28;20068;-85
2024/02/22 10:23:06;;;;;;;0.10;0.10;;;;;;;;;;4994721;28;20497;-85
2024/02/22 10:25:32;;;;;;;0.10;0.10;;;;;;;;;;5012190;28;20069;-84
2024/02/22 10:27:58;;;;;;;0.20;0.20;;;;;;;;;;5011910;28;20077;-86
2024/02/22 10:30:26;;;;;;;0.10;0.10;;;;;;;;;;5011886;28;20101;-85
2024/02/22 10:32:55;;;;;;;0.10;0.10;;;;;;;;;;5011938;28;20044;-85
2024/02/22 10:35:21;;;;;;;0.13;0.13;;;;;;;;;;5012062;28;20386;-85
2024/02/22 10:37:49;;;;;;;0.20;0.20;;;;;;;;;;5011868;28;20442;-85
2024/02/22 10:40:17;;;;;;;0.20;0.20;;;;;;;;;;5011906;28;20046;-86
2024/02/22 10:42:43;;;;;;;0.10;0.10;;;;;;;;;;5028439;28;20052;-86
2024/02/22 10:45:10;;;;;;;0.10;0.10;;;;;;;;;;5011831;28;20129;-86
2024/02/22 10:47:37;;;;;;;0.22;0.22;;;;;;;;;;5010952;28;20038;-85
2024/02/22 10:50:07;;;;;;;0.10;0.10;;;;;;;;;;5011883;28;20401;-84
2024/02/22 10:52:39;;;;;;;0.13;0.13;;;;;;;;;;5011928;28;20561;-84
2024/02/22 10:55:09;;;;;;;0.10;0.10;;;;;;;;;;4994798;28;20128;-84
2024/02/22 10:57:35;;;;;;;0.10;0.10;;;;;;;;;;4992464;28;20048;-85
2024/02/22 11:00:01;;;;;;;0.10;0.10;;;;;;;;;;4978878;28;20053;-85
2024/02/22 11:02:27;;;;;;;0.20;0.20;;;;;;;;;;5010991;28;20048;-85
2024/02/22 11:04:58;;;;;;;0.20;0.20;;;;;;;;;;4995293;28;20077;-85
2024/02/22 11:07:24;;;;;;;0.17;0.17;;;;;;;;;;5011483;28;20110;-85
2024/02/22 11:09:54;;;;;;;0.22;0.17;;;;;;;;;;4994982;28;20042;-85
2024/02/22 11:12:20;;;;;;;0.10;0.10;;;;;;;;;;4996670;28;20038;-84
2024/02/22 11:14:46;;;;;;;0.10;0.10;;;;;;;;;;5014851;28;20046;-86
2024/02/22 11:17:15;;;;;;;0.35;0.30;;;;;;;;;;4997499;28;20060;-84
2024/02/22 11:19:41;;;;;;;0.20;0.20;;;;;;;;;;5011392;28;20126;-84
2024/02/22 11:22:14;;;;;;;1.20;1.10;;;;;;;;;;4994964;28;20125;-84
2024/02/22 11:24:40;;;;;;;1.65;0.28;;;;;;;;;;4994816;28;20077;-85
2024/02/22 11:27:08;;;;;;;0.20;0.20;;;;;;;;;;4994938;28;20046;-84
2024/02/22 11:29:34;;;;;;;0.10;0.10;;;;;;;;;;4994761;28;20133;-85
2024/02/22 11:32:01;;;;;;;0.20;0.20;;;;;;;;;;4995034;28;20096;-86
2024/02/22 11:34:27;;;;;;;0.20;0.20;;;;;;;;;;4994810;28;20056;-85
2024/02/22 11:36:57;;;;;;;0.10;0.10;;;;;;;;;;4993440;28;20129;-83
2024/02/22 11:39:23;;;;;;;0.20;0.20;;;;;;;;;;4994482;28;20100;-84
2024/02/22 11:41:49;;;;;;;0.10;0.10;;;;;;;;;;5011797;28;20183;-85
2024/02/22 11:44:16;;;;;;;0.30;0.30;;;;;;;;;;5010829;28;20046;-86
2024/02/22 11:46:42;;;;;;;0.40;0.40;;;;;;;;;;5011160;28;20385;-86
2024/02/22 11:49:08;;;;;;;0.15;0.15;;;;;;;;;;5010884;28;20052;-86
2024/02/22 11:51:34;;;;;;;0.20;0.20;;;;;;;;;;5011110;28;20041;-86
2024/02/22 11:54:00;;;;;;;0.45;0.10;;;;;;;;;;5011061;28;20104;-87
2024/02/22 11:56:27;;;;;;;0.13;0.13;;;;;;;;;;5010873;28;20085;-86
2024/02/22 11:58:55;;;;;;;0.10;0.10;;;;;;;;;;5011123;28;20374;-86
2024/02/22 12:01:21;;;;;;;0.10;0.10;;;;;;;;;;5010745;28;20052;-86
2024/02/22 12:03:47;;;;;;;0.82;0.82;;;;;;;;;;5010811;28;20042;-86
2024/02/22 12:06:14;;;;;;;0.10;0.10;;;;;;;;;;5011110;28;20064;-86
2024/02/22 12:08:43;;;;;;;0.13;0.13;;;;;;;;;;5010730;28;20038;-86
2024/02/22 12:11:09;;;;;;;0.10;0.10;;;;;;;;;;5014729;28;20048;-86
2024/02/22 12:13:36;;;;;;;0.10;0.10;;;;;;;;;;5014839;28;20038;-86
2024/02/22 12:16:08;;;;;;;0.10;0.10;;;;;;;;;;5015233;28;20041;-86
2024/02/22 12:18:35;;;;;;;0.17;0.17;;;;;;;;;;5014900;28;20042;-86
2024/02/22 12:21:01;;;;;;;0.10;0.10;;;;;;;;;;5014569;28;20041;-86
2024/02/22 12:23:27;;;;;;;0.20;0.20;;;;;;;;;;5014399;28;20049;-86
2024/02/22 12:25:53;;;;;;;0.10;0.10;;;;;;;;;;5014489;28;20057;-83
2024/02/22 12:28:19;;;;;;;0.10;0.10;;;;;;;;;;5014395;28;20041;-83
2024/02/22 12:30:45;;;;;;;0.10;0.10;;;;;;;;;;5014285;28;20541;-83
2024/02/22 12:33:24;;;;;;;0.30;0.30;;;;;;;;;;5014390;28;20489;-84
2024/02/22 12:35:50;;;;;;;0.10;0.10;;;;;;;;;;5014378;28;20038;-84
2024/02/22 12:38:16;;;;;;;0.10;0.10;;;;;;;;;;5014509;28;20413;-84
2024/02/22 12:40:45;;;;;;;0.10;0.10;;;;;;;;;;5014076;28;20044;-85
2024/02/22 12:43:14;;;;;;;0.10;0.10;;;;;;;;;;5014100;28;20042;-84
2024/02/22 12:45:40;;;;;;;0.10;0.10;;;;;;;;;;5014002;28;20042;-85
2024/02/22 12:48:07;;;;;;;0.20;0.20;;;;;;;;;;5014200;28;20100;-87
2024/02/22 12:50:33;;;;;;;0.10;0.10;;;;;;;;;;5014349;28;20050;-88
2024/02/22 12:53:00;;;;;;;0.10;0.10;;;;;;;;;;5014198;28;20121;-89
2024/02/22 12:55:26;;;;;;;0.10;0.10;;;;;;;;;;5014275;28;20092;-89
2024/02/22 12:57:52;;;;;;;0.20;0.20;;;;;;;;;;5014570;28;20056;-88
2024/02/22 13:00:18;;;;;;;0.30;0.30;;;;;;;;;;5014916;28;20524;-92
2024/02/22 13:02:44;;;;;;;0.20;0.20;;;;;;;;;;5014544;28;20124;-89
2024/02/22 13:05:11;;;;;;;0.20;0.20;;;;;;;;;;5014345;28;20044;-89
2024/02/22 13:07:37;;;;;;;0.30;0.30;;;;;;;;;;5014521;28;20104;-90
2024/02/22 13:10:05;;;;;;;0.10;0.10;;;;;;;;;;5014806;28;20145;-88
2024/02/22 13:12:35;;;;;;;0.10;0.10;;;;;;;;;;5014912;28;20038;-91
2024/02/22 13:15:01;;;;;;;0.20;0.20;;;;;;;;;;5014787;28;20045;-89
2024/02/22 13:17:27;;;;;;;0.30;0.30;;;;;;;;;;5014235;28;20037;-87
2024/02/22 13:19:54;;;;;;;0.10;0.10;;;;;;;;;;5013296;28;20482;-85
2024/02/22 13:22:20;;;;;;;0.40;0.40;;;;;;;;;;5013844;28;20470;-84
2024/02/22 13:24:47;;;;;;;0.35;0.35;;;;;;;;;;5013445;28;20038;-84
2024/02/22 13:27:15;;;;;;;0.20;0.20;;;;;;;;;;5013115;28;20482;-84
2024/02/22 13:29:41;;;;;;;0.22;0.22;;;;;;;;;;5013132;28;20045;-85
2024/02/22 13:32:08;;;;;;;0.70;0.43;;;;;;;;;;5013173;28;20045;-84
2024/02/22 13:34:34;;;;;;;0.20;0.20;;;;;;;;;;5013044;28;20038;-85
2024/02/22 13:37:00;;;;;;;0.40;0.40;;;;;;;;;;5013025;28;20045;-84
2024/02/22 13:39:27;;;;;;;0.20;0.20;;;;;;;;;;5013262;28;20046;-85
2024/02/22 13:41:54;;;;;;;0.43;0.43;;;;;;;;;;5012877;28;20100;-85
2024/02/22 13:44:23;;;;;;;0.55;0.40;;;;;;;;;;5012806;28;20048;-83
2024/02/22 13:46:49;;;;;;;0.30;0.30;;;;;;;;;;5013065;28;20099;-84
2024/02/22 13:49:19;;;;;;;0.20;0.20;;;;;;;;;;5013095;28;20437;-84
2024/02/22 13:51:46;;;;;;;0.22;0.22;;;;;;;;;;5012729;28;20042;-83
2024/02/22 13:54:13;;;;;;;0.65;0.65;;;;;;;;;;5012582;28;20077;-84
2024/02/22 13:56:40;;;;;;;0.47;0.43;;;;;;;;;;5016050;28;20049;-85
2024/02/22 13:59:07;;;;;;;0.20;0.20;;;;;;;;;;5000052;28;20107;-85
2024/02/22 14:01:33;;;;;;;0.15;0.15;;;;;;;;;;4999592;28;20049;-86
2024/02/22 14:04:00;;;;;;;0.20;0.20;;;;;;;;;;4999488;28;20037;-86
2024/02/22 14:06:26;;;;;;;0.55;0.50;;;;;;;;;;4999749;28;20049;-86
2024/02/22 14:08:52;;;;;;;0.10;0.10;;;;;;;;;;4999588;28;20033;-85
2024/02/22 14:11:18;;;;;;;0.20;0.20;;;;;;;;;;4999480;28;20033;-86
2024/02/22 14:13:44;;;;;;;0.55;0.55;;;;;;;;;;4999255;28;20052;-86
2024/02/22 14:16:10;;;;;;;0.30;0.30;;;;;;;;;;4999549;28;20045;-86
2024/02/22 14:18:37;;;;;;;0.30;0.30;;;;;;;;;;4997451;28;20120;-85
2024/02/22 14:21:06;;;;;;;0.20;0.20;;;;;;;;;;5015755;28;20040;-85
2024/02/22 14:23:32;;;;;;;0.20;0.20;;;;;;;;;;5015677;28;20060;-85
2024/02/22 14:25:58;;;;;;;0.20;0.20;;;;;;;;;;4999388;28;20049;-86
2024/02/22 14:28:24;;;;;;;0.20;0.20;;;;;;;;;;4999038;28;20052;-85
2024/02/22 14:30:50;;;;;;;0.30;0.30;;;;;;;;;;4999272;28;20041;-86
2024/02/22 14:33:18;;;;;;;0.30;0.30;;;;;;;;;;4998582;28;20045;-83
2024/02/22 14:35:46;;;;;;;0.28;0.28;;;;;;;;;;4999584;28;20124;-83
2024/02/22 14:38:13;;;;;;;0.20;0.20;;;;;;;;;;4999451;28;20045;-83
2024/02/22 14:40:39;;;;;;;0.10;0.10;;;;;;;;;;5031771;28;20065;-83